sensor_id;sensor_type;location;lat;lon;timestamp;temperature;humidity
63317;DHT22;49822;41.468;13.560;2023-02-28T00:01:36;9.90;81.80
63317;DHT22;49822;41.468;13.560;2023-02-28T00:04:04;9.90;81.10
63317;DHT22;49822;41.468;13.560;2023-02-28T00:06:31;9.90;81.40
63317;DHT22;49822;41.468;13.560;2023-02-28T00:08:59;9.90;81.40
63317;DHT22;49822;41.468;13.560;2023-02-28T00:11:26;9.90;81.20
63317;DHT22;49822;41.468;13.560;2023-02-28T00:13:54;9.90;81.30
63317;DHT22;49822;41.468;13.560;2023-02-28T00:16:22;9.80;81.10
63317;DHT22;49822;41.468;13.560;2023-02-28T00:18:50;9.70;81.60
63317;DHT22;49822;41.468;13.560;2023-02-28T00:21:19;9.70;81.50
63317;DHT22;49822;41.468;13.560;2023-02-28T00:23:46;9.50;81.40
63317;DHT22;49822;41.468;13.560;2023-02-28T00:26:14;9.70;81.60
63317;DHT22;49822;41.468;13.560;2023-02-28T00:28:45;9.50;81.50
63317;DHT22;49822;41.468;13.560;2023-02-28T00:31:13;9.40;81.80
63317;DHT22;49822;41.468;13.560;2023-02-28T00:33:42;9.30;81.90
63317;DHT22;49822;41.468;13.560;2023-02-28T00:36:11;9.30;81.90
63317;DHT22;49822;41.468;13.560;2023-02-28T00:38:40;9.10;81.90
63317;DHT22;49822;41.468;13.560;2023-02-28T00:41:08;9.20;82.00
63317;DHT22;49822;41.468;13.560;2023-02-28T00:43:38;9.30;82.00
63317;DHT22;49822;41.468;13.560;2023-02-28T00:46:07;9.30;81.90
63317;DHT22;49822;41.468;13.560;2023-02-28T00:48:35;9.40;81.50
63317;DHT22;49822;41.468;13.560;2023-02-28T00:51:05;9.40;81.30
63317;DHT22;49822;41.468;13.560;2023-02-28T00:53:34;9.40;81.20
63317;DHT22;49822;41.468;13.560;2023-02-28T00:56:02;9.50;81.20
63317;DHT22;49822;41.468;13.560;2023-02-28T00:58:32;9.70;81.60
63317;DHT22;49822;41.468;13.560;2023-02-28T01:00:59;9.70;81.10
63317;DHT22;49822;41.468;13.560;2023-02-28T01:03:28;9.80;81.40
63317;DHT22;49822;41.468;13.560;2023-02-28T01:05:58;9.80;80.90
63317;DHT22;49822;41.468;13.560;2023-02-28T01:08:25;9.80;80.60
63317;DHT22;49822;41.468;13.560;2023-02-28T01:10:54;9.80;80.40
63317;DHT22;49822;41.468;13.560;2023-02-28T01:13:23;10.00;80.50
63317;DHT22;49822;41.468;13.560;2023-02-28T01:15:55;10.00;80.10
63317;DHT22;49822;41.468;13.560;2023-02-28T01:18:25;9.90;79.60
63317;DHT22;49822;41.468;13.560;2023-02-28T01:20:52;9.90;79.70
63317;DHT22;49822;41.468;13.560;2023-02-28T01:23:22;9.80;80.00
63317;DHT22;49822;41.468;13.560;2023-02-28T01:25:51;9.90;79.80
63317;DHT22;49822;41.468;13.560;2023-02-28T01:28:19;9.90;80.40
63317;DHT22;49822;41.468;13.560;2023-02-28T01:30:51;9.80;79.60
63317;DHT22;49822;41.468;13.560;2023-02-28T01:33:18;9.90;79.90
63317;DHT22;49822;41.468;13.560;2023-02-28T01:35:46;9.90;79.90
63317;DHT22;49822;41.468;13.560;2023-02-28T01:38:15;9.80;79.70
63317;DHT22;49822;41.468;13.560;2023-02-28T01:40:52;10.00;79.70
63317;DHT22;49822;41.468;13.560;2023-02-28T01:43:32;10.00;79.80
63317;DHT22;49822;41.468;13.560;2023-02-28T01:45:59;9.90;80.20
63317;DHT22;49822;41.468;13.560;2023-02-28T01:48:40;9.90;79.90
63317;DHT22;49822;41.468;13.560;2023-02-28T01:51:33;9.90;79.90
63317;DHT22;49822;41.468;13.560;2023-02-28T01:54:08;9.80;80.30
63317;DHT22;49822;41.468;13.560;2023-02-28T01:56:47;9.90;80.40
63317;DHT22;49822;41.468;13.560;2023-02-28T01:59:22;9.70;80.00
63317;DHT22;49822;41.468;13.560;2023-02-28T02:01:53;9.30;81.10
63317;DHT22;49822;41.468;13.560;2023-02-28T02:04:23;9.00;81.20
63317;DHT22;49822;41.468;13.560;2023-02-28T02:06:54;9.30;81.20
63317;DHT22;49822;41.468;13.560;2023-02-28T02:09:24;9.30;80.70
63317;DHT22;49822;41.468;13.560;2023-02-28T02:11:55;9.40;80.60
63317;DHT22;49822;41.468;13.560;2023-02-28T02:17:50;9.60;81.00
63317;DHT22;49822;41.468;13.560;2023-02-28T02:20:27;9.60;80.40
63317;DHT22;49822;41.468;13.560;2023-02-28T02:26:11;9.30;81.40
63317;DHT22;49822;41.468;13.560;2023-02-28T02:28:55;9.40;80.80
63317;DHT22;49822;41.468;13.560;2023-02-28T02:40:04;9.60;79.50
63317;DHT22;49822;41.468;13.560;2023-02-28T02:43:19;9.60;80.40
63317;DHT22;49822;41.468;13.560;2023-02-28T02:45:55;9.50;80.20
63317;DHT22;49822;41.468;13.560;2023-02-28T02:48:30;9.50;79.50
63317;DHT22;49822;41.468;13.560;2023-02-28T02:51:01;9.50;79.90
63317;DHT22;49822;41.468;13.560;2023-02-28T02:53:34;9.50;79.80
63317;DHT22;49822;41.468;13.560;2023-02-28T02:56:05;9.40;79.90
63317;DHT22;49822;41.468;13.560;2023-02-28T02:58:38;9.40;79.90
63317;DHT22;49822;41.468;13.560;2023-02-28T03:01:14;9.20;79.80
63317;DHT22;49822;41.468;13.560;2023-02-28T03:03:46;9.00;80.30
63317;DHT22;49822;41.468;13.560;2023-02-28T03:06:15;9.10;80.90
63317;DHT22;49822;41.468;13.560;2023-02-28T03:08:42;9.10;80.70
63317;DHT22;49822;41.468;13.560;2023-02-28T03:11:14;9.10;80.50
63317;DHT22;49822;41.468;13.560;2023-02-28T03:28:47;8.80;80.50
63317;DHT22;49822;41.468;13.560;2023-02-28T03:31:35;8.70;80.80
63317;DHT22;49822;41.468;13.560;2023-02-28T03:37:02;8.60;80.80
63317;DHT22;49822;41.468;13.560;2023-02-28T03:39:45;8.80;80.70
63317;DHT22;49822;41.468;13.560;2023-02-28T03:42:22;8.80;80.60
63317;DHT22;49822;41.468;13.560;2023-02-28T03:45:03;8.80;80.50
63317;DHT22;49822;41.468;13.560;2023-02-28T03:47:41;8.80;80.50
63317;DHT22;49822;41.468;13.560;2023-02-28T03:50:35;8.90;80.40
63317;DHT22;49822;41.468;13.560;2023-02-28T03:53:12;8.90;80.40
63317;DHT22;49822;41.468;13.560;2023-02-28T03:55:52;9.00;80.50
63317;DHT22;49822;41.468;13.560;2023-02-28T03:58:38;9.10;80.10
63317;DHT22;49822;41.468;13.560;2023-02-28T04:01:12;8.90;80.20
63317;DHT22;49822;41.468;13.560;2023-02-28T04:03:41;9.00;80.10
63317;DHT22;49822;41.468;13.560;2023-02-28T04:06:16;9.10;79.50
63317;DHT22;49822;41.468;13.560;2023-02-28T04:08:45;9.20;79.50
63317;DHT22;49822;41.468;13.560;2023-02-28T04:11:45;9.30;79.70
63317;DHT22;49822;41.468;13.560;2023-02-28T04:14:14;9.30;79.70
63317;DHT22;49822;41.468;13.560;2023-02-28T04:16:42;9.40;79.50
63317;DHT22;49822;41.468;13.560;2023-02-28T04:19:11;9.50;79.40
63317;DHT22;49822;41.468;13.560;2023-02-28T04:21:45;9.50;79.20
63317;DHT22;49822;41.468;13.560;2023-02-28T04:24:16;9.50;79.30
63317;DHT22;49822;41.468;13.560;2023-02-28T04:26:47;9.60;79.00
63317;DHT22;49822;41.468;13.560;2023-02-28T04:29:23;9.70;78.60
63317;DHT22;49822;41.468;13.560;2023-02-28T04:31:52;9.70;78.30
63317;DHT22;49822;41.468;13.560;2023-02-28T04:34:23;9.70;78.90
63317;DHT22;49822;41.468;13.560;2023-02-28T04:36:52;9.70;78.30
63317;DHT22;49822;41.468;13.560;2023-02-28T04:39:39;9.80;78.50
63317;DHT22;49822;41.468;13.560;2023-02-28T04:42:07;9.70;78.40
63317;DHT22;49822;41.468;13.560;2023-02-28T04:44:35;9.80;78.30
63317;DHT22;49822;41.468;13.560;2023-02-28T04:47:02;9.90;78.50
63317;DHT22;49822;41.468;13.560;2023-02-28T04:49:30;9.80;78.30
63317;DHT22;49822;41.468;13.560;2023-02-28T04:51:58;9.80;78.30
63317;DHT22;49822;41.468;13.560;2023-02-28T04:54:26;9.90;78.10
63317;DHT22;49822;41.468;13.560;2023-02-28T04:56:55;9.80;78.00
63317;DHT22;49822;41.468;13.560;2023-02-28T04:59:22;10.00;78.20
63317;DHT22;49822;41.468;13.560;2023-02-28T05:01:50;9.90;77.80
63317;DHT22;49822;41.468;13.560;2023-02-28T05:04:18;9.90;78.00
63317;DHT22;49822;41.468;13.560;2023-02-28T05:06:45;9.90;77.90
63317;DHT22;49822;41.468;13.560;2023-02-28T05:09:13;10.00;77.80
63317;DHT22;49822;41.468;13.560;2023-02-28T05:11:41;9.90;77.80
63317;DHT22;49822;41.468;13.560;2023-02-28T05:14:22;9.90;77.60
63317;DHT22;49822;41.468;13.560;2023-02-28T05:17:29;9.90;77.70
63317;DHT22;49822;41.468;13.560;2023-02-28T05:20:09;9.90;77.90
63317;DHT22;49822;41.468;13.560;2023-02-28T05:22:43;9.90;77.50
63317;DHT22;49822;41.468;13.560;2023-02-28T05:25:18;9.90;77.70
63317;DHT22;49822;41.468;13.560;2023-02-28T05:27:47;9.90;77.70
63317;DHT22;49822;41.468;13.560;2023-02-28T05:30:16;9.90;77.70
63317;DHT22;49822;41.468;13.560;2023-02-28T05:32:49;9.90;77.60
63317;DHT22;49822;41.468;13.560;2023-02-28T05:35:17;9.80;77.40
63317;DHT22;49822;41.468;13.560;2023-02-28T05:37:45;9.90;77.50
63317;DHT22;49822;41.468;13.560;2023-02-28T05:40:13;9.90;77.50
63317;DHT22;49822;41.468;13.560;2023-02-28T05:42:50;9.80;77.70
63317;DHT22;49822;41.468;13.560;2023-02-28T05:49:16;9.90;77.70
63317;DHT22;49822;41.468;13.560;2023-02-28T05:52:15;9.80;77.90
63317;DHT22;49822;41.468;13.560;2023-02-28T05:54:43;9.80;77.70
63317;DHT22;49822;41.468;13.560;2023-02-28T05:57:11;9.80;77.70
63317;DHT22;49822;41.468;13.560;2023-02-28T05:59:50;9.80;77.60
63317;DHT22;49822;41.468;13.560;2023-02-28T06:02:18;9.80;77.80
63317;DHT22;49822;41.468;13.560;2023-02-28T06:04:46;9.90;77.60
63317;DHT22;49822;41.468;13.560;2023-02-28T06:07:13;9.90;77.60
63317;DHT22;49822;41.468;13.560;2023-02-28T06:09:41;9.90;77.70
63317;DHT22;49822;41.468;13.560;2023-02-28T06:12:10;10.00;77.60
63317;DHT22;49822;41.468;13.560;2023-02-28T06:14:43;10.00;77.30
63317;DHT22;49822;41.468;13.560;2023-02-28T06:17:46;10.20;77.00
63317;DHT22;49822;41.468;13.560;2023-02-28T06:20:28;10.30;77.20
63317;DHT22;49822;41.468;13.560;2023-02-28T06:22:57;10.30;77.30
63317;DHT22;49822;41.468;13.560;2023-02-28T06:25:32;10.30;76.50
63317;DHT22;49822;41.468;13.560;2023-02-28T06:28:20;10.40;76.30
63317;DHT22;49822;41.468;13.560;2023-02-28T06:30:55;10.40;76.60
63317;DHT22;49822;41.468;13.560;2023-02-28T06:33:25;10.50;76.40
63317;DHT22;49822;41.468;13.560;2023-02-28T06:35:52;10.60;76.10
63317;DHT22;49822;41.468;13.560;2023-02-28T06:38:20;10.50;76.20
63317;DHT22;49822;41.468;13.560;2023-02-28T06:40:56;10.60;75.60
63317;DHT22;49822;41.468;13.560;2023-02-28T06:44:02;10.70;75.80
63317;DHT22;49822;41.468;13.560;2023-02-28T06:46:50;10.60;76.70
63317;DHT22;49822;41.468;13.560;2023-02-28T06:49:50;10.70;76.40
63317;DHT22;49822;41.468;13.560;2023-02-28T06:52:56;10.70;76.50
63317;DHT22;49822;41.468;13.560;2023-02-28T06:55:24;10.60;75.50
63317;DHT22;49822;41.468;13.560;2023-02-28T06:57:54;10.70;75.90
63317;DHT22;49822;41.468;13.560;2023-02-28T07:00:42;10.70;75.90
63317;DHT22;49822;41.468;13.560;2023-02-28T07:12:00;11.30;75.20
63317;DHT22;49822;41.468;13.560;2023-02-28T07:14:27;11.50;75.20
63317;DHT22;49822;41.468;13.560;2023-02-28T07:20:07;11.70;74.00
63317;DHT22;49822;41.468;13.560;2023-02-28T07:22:35;11.70;74.30
63317;DHT22;49822;41.468;13.560;2023-02-28T07:25:04;11.80;74.60
63317;DHT22;49822;41.468;13.560;2023-02-28T07:27:33;11.90;73.60
63317;DHT22;49822;41.468;13.560;2023-02-28T07:30:01;11.70;74.20
63317;DHT22;49822;41.468;13.560;2023-02-28T07:32:33;11.90;74.50
63317;DHT22;49822;41.468;13.560;2023-02-28T07:35:06;11.90;74.80
63317;DHT22;49822;41.468;13.560;2023-02-28T07:37:34;11.90;74.30
63317;DHT22;49822;41.468;13.560;2023-02-28T07:40:08;11.90;74.10
63317;DHT22;49822;41.468;13.560;2023-02-28T07:42:37;11.80;73.40
63317;DHT22;49822;41.468;13.560;2023-02-28T07:45:07;11.90;74.30
63317;DHT22;49822;41.468;13.560;2023-02-28T07:47:35;11.90;74.40
63317;DHT22;49822;41.468;13.560;2023-02-28T07:50:03;11.80;73.90
63317;DHT22;49822;41.468;13.560;2023-02-28T07:52:33;11.80;73.80
63317;DHT22;49822;41.468;13.560;2023-02-28T07:55:01;11.90;74.80
63317;DHT22;49822;41.468;13.560;2023-02-28T07:57:28;11.90;73.40
63317;DHT22;49822;41.468;13.560;2023-02-28T08:00:05;12.00;74.40
63317;DHT22;49822;41.468;13.560;2023-02-28T08:02:43;12.10;74.60
63317;DHT22;49822;41.468;13.560;2023-02-28T08:05:10;12.10;73.50
63317;DHT22;49822;41.468;13.560;2023-02-28T08:07:38;12.30;74.10
63317;DHT22;49822;41.468;13.560;2023-02-28T08:10:08;12.50;73.60
63317;DHT22;49822;41.468;13.560;2023-02-28T08:12:37;12.60;73.80
63317;DHT22;49822;41.468;13.560;2023-02-28T08:15:06;12.70;73.20
63317;DHT22;49822;41.468;13.560;2023-02-28T08:17:34;12.90;73.00
63317;DHT22;49822;41.468;13.560;2023-02-28T08:20:01;13.00;72.20
63317;DHT22;49822;41.468;13.560;2023-02-28T08:22:32;13.10;72.30
63317;DHT22;49822;41.468;13.560;2023-02-28T08:25:00;12.80;71.20
63317;DHT22;49822;41.468;13.560;2023-02-28T08:27:27;12.80;71.70
63317;DHT22;49822;41.468;13.560;2023-02-28T08:29:55;12.90;72.60
63317;DHT22;49822;41.468;13.560;2023-02-28T08:32:22;13.10;71.80
63317;DHT22;49822;41.468;13.560;2023-02-28T08:34:56;13.10;72.50
63317;DHT22;49822;41.468;13.560;2023-02-28T08:37:24;13.10;70.90
63317;DHT22;49822;41.468;13.560;2023-02-28T08:39:52;13.10;72.00
63317;DHT22;49822;41.468;13.560;2023-02-28T08:42:23;13.20;71.60
63317;DHT22;49822;41.468;13.560;2023-02-28T08:44:50;13.20;71.20
63317;DHT22;49822;41.468;13.560;2023-02-28T08:47:18;13.40;71.90
63317;DHT22;49822;41.468;13.560;2023-02-28T08:49:47;13.30;71.50
63317;DHT22;49822;41.468;13.560;2023-02-28T08:52:14;13.40;71.80
63317;DHT22;49822;41.468;13.560;2023-02-28T08:54:43;13.50;71.70
63317;DHT22;49822;41.468;13.560;2023-02-28T08:57:14;13.50;71.40
63317;DHT22;49822;41.468;13.560;2023-02-28T08:59:42;13.60;71.10
63317;DHT22;49822;41.468;13.560;2023-02-28T09:02:13;13.60;71.00
63317;DHT22;49822;41.468;13.560;2023-02-28T09:04:40;13.70;72.00
63317;DHT22;49822;41.468;13.560;2023-02-28T09:07:08;13.80;70.90
63317;DHT22;49822;41.468;13.560;2023-02-28T09:09:36;13.90;70.30
63317;DHT22;49822;41.468;13.560;2023-02-28T09:12:03;13.80;70.80
63317;DHT22;49822;41.468;13.560;2023-02-28T09:14:32;13.80;70.60
63317;DHT22;49822;41.468;13.560;2023-02-28T09:16:59;13.90;71.40
63317;DHT22;49822;41.468;13.560;2023-02-28T09:19:27;13.90;70.50
63317;DHT22;49822;41.468;13.560;2023-02-28T09:21:55;13.90;69.60
63317;DHT22;49822;41.468;13.560;2023-02-28T09:24:22;14.30;71.20
63317;DHT22;49822;41.468;13.560;2023-02-28T09:26:49;14.40;70.20
63317;DHT22;49822;41.468;13.560;2023-02-28T09:29:31;14.50;68.50
63317;DHT22;49822;41.468;13.560;2023-02-28T09:31:59;14.50;68.50
63317;DHT22;49822;41.468;13.560;2023-02-28T09:34:28;14.80;67.90
63317;DHT22;49822;41.468;13.560;2023-02-28T09:36:58;15.10;68.70
63317;DHT22;49822;41.468;13.560;2023-02-28T09:39:25;15.40;67.80
63317;DHT22;49822;41.468;13.560;2023-02-28T09:41:55;15.40;67.10
63317;DHT22;49822;41.468;13.560;2023-02-28T09:44:33;15.50;66.60
63317;DHT22;49822;41.468;13.560;2023-02-28T09:47:31;15.60;66.10
63317;DHT22;49822;41.468;13.560;2023-02-28T09:50:20;15.60;65.40
63317;DHT22;49822;41.468;13.560;2023-02-28T09:52:51;15.70;65.50
63317;DHT22;49822;41.468;13.560;2023-02-28T09:55:30;15.70;66.30
63317;DHT22;49822;41.468;13.560;2023-02-28T09:58:41;15.90;65.70
63317;DHT22;49822;41.468;13.560;2023-02-28T10:01:33;15.90;65.30
63317;DHT22;49822;41.468;13.560;2023-02-28T10:07:04;16.00;64.70
63317;DHT22;49822;41.468;13.560;2023-02-28T10:09:34;15.80;65.50
63317;DHT22;49822;41.468;13.560;2023-02-28T10:12:06;15.60;64.30
63317;DHT22;49822;41.468;13.560;2023-02-28T10:14:39;15.50;65.60
63317;DHT22;49822;41.468;13.560;2023-02-28T10:17:17;15.70;67.30
63317;DHT22;49822;41.468;13.560;2023-02-28T10:20:05;15.80;65.70
63317;DHT22;49822;41.468;13.560;2023-02-28T10:25:37;15.90;66.30
63317;DHT22;49822;41.468;13.560;2023-02-28T10:28:16;16.00;65.70
63317;DHT22;49822;41.468;13.560;2023-02-28T10:30:50;15.90;66.30
63317;DHT22;49822;41.468;13.560;2023-02-28T10:33:29;15.80;65.40
63317;DHT22;49822;41.468;13.560;2023-02-28T10:35:58;15.80;66.20
63317;DHT22;49822;41.468;13.560;2023-02-28T10:38:29;16.10;66.70
63317;DHT22;49822;41.468;13.560;2023-02-28T10:41:29;16.10;65.30
63317;DHT22;49822;41.468;13.560;2023-02-28T10:44:22;16.00;64.30
63317;DHT22;49822;41.468;13.560;2023-02-28T10:46:51;16.00;64.60
63317;DHT22;49822;41.468;13.560;2023-02-28T10:49:27;16.10;65.90
63317;DHT22;49822;41.468;13.560;2023-02-28T10:52:00;16.20;66.10
63317;DHT22;49822;41.468;13.560;2023-02-28T10:54:36;16.30;65.70
63317;DHT22;49822;41.468;13.560;2023-02-28T10:57:20;16.20;65.30
63317;DHT22;49822;41.468;13.560;2023-02-28T10:59:51;16.30;65.30
63317;DHT22;49822;41.468;13.560;2023-02-28T11:02:35;16.30;65.30
63317;DHT22;49822;41.468;13.560;2023-02-28T11:05:26;16.30;63.90
63317;DHT22;49822;41.468;13.560;2023-02-28T11:07:56;16.30;65.30
63317;DHT22;49822;41.468;13.560;2023-02-28T11:10:28;16.30;64.00
63317;DHT22;49822;41.468;13.560;2023-02-28T11:12:58;16.10;64.80
63317;DHT22;49822;41.468;13.560;2023-02-28T11:15:33;16.10;64.80
63317;DHT22;49822;41.468;13.560;2023-02-28T11:20:52;15.90;65.10
63317;DHT22;49822;41.468;13.560;2023-02-28T11:23:21;15.90;64.60
63317;DHT22;49822;41.468;13.560;2023-02-28T11:25:51;15.70;63.60
63317;DHT22;49822;41.468;13.560;2023-02-28T11:28:30;15.50;64.50
63317;DHT22;49822;41.468;13.560;2023-02-28T11:36:17;15.20;65.40
63317;DHT22;49822;41.468;13.560;2023-02-28T11:38:48;15.20;66.40
63317;DHT22;49822;41.468;13.560;2023-02-28T11:41:34;15.00;66.00
63317;DHT22;49822;41.468;13.560;2023-02-28T11:47:38;14.90;66.70
63317;DHT22;49822;41.468;13.560;2023-02-28T11:54:01;14.80;66.50
63317;DHT22;49822;41.468;13.560;2023-02-28T11:56:25;14.70;67.70
63317;DHT22;49822;41.468;13.560;2023-02-28T12:10:51;14.30;71.70
63317;DHT22;49822;41.468;13.560;2023-02-28T12:13:21;14.10;71.20
63317;DHT22;49822;41.468;13.560;2023-02-28T12:26:42;14.20;72.60
63317;DHT22;49822;41.468;13.560;2023-02-28T12:32:05;14.10;71.10
63317;DHT22;49822;41.468;13.560;2023-02-28T12:37:17;14.20;71.80
63317;DHT22;49822;41.468;13.560;2023-02-28T12:39:51;14.20;72.20
63317;DHT22;49822;41.468;13.560;2023-02-28T12:42:33;14.20;72.00
63317;DHT22;49822;41.468;13.560;2023-02-28T12:45:53;14.30;72.60
63317;DHT22;49822;41.468;13.560;2023-02-28T12:48:52;14.40;71.90
63317;DHT22;49822;41.468;13.560;2023-02-28T12:51:19;14.50;72.60
63317;DHT22;49822;41.468;13.560;2023-02-28T12:54:07;14.50;72.70
63317;DHT22;49822;41.468;13.560;2023-02-28T13:05:01;14.40;72.00
63317;DHT22;49822;41.468;13.560;2023-02-28T13:08:04;14.30;72.00
63317;DHT22;49822;41.468;13.560;2023-02-28T13:11:42;14.30;72.30
63317;DHT22;49822;41.468;13.560;2023-02-28T13:14:37;14.20;71.60
63317;DHT22;49822;41.468;13.560;2023-02-28T13:17:41;14.20;72.90
63317;DHT22;49822;41.468;13.560;2023-02-28T13:20:35;14.20;73.30
63317;DHT22;49822;41.468;13.560;2023-02-28T13:23:03;14.10;74.10
63317;DHT22;49822;41.468;13.560;2023-02-28T13:28:11;13.80;74.60
63317;DHT22;49822;41.468;13.560;2023-02-28T13:34:15;13.50;75.80
63317;DHT22;49822;41.468;13.560;2023-02-28T13:39:52;13.20;77.40
63317;DHT22;49822;41.468;13.560;2023-02-28T13:42:47;12.90;78.00
63317;DHT22;49822;41.468;13.560;2023-02-28T13:45:30;12.50;79.50
63317;DHT22;49822;41.468;13.560;2023-02-28T13:48:19;12.40;80.10
63317;DHT22;49822;41.468;13.560;2023-02-28T13:50:51;12.30;80.30
63317;DHT22;49822;41.468;13.560;2023-02-28T13:53:45;12.20;80.70
63317;DHT22;49822;41.468;13.560;2023-02-28T14:06:26;12.00;81.60
63317;DHT22;49822;41.468;13.560;2023-02-28T14:09:56;11.90;81.90
63317;DHT22;49822;41.468;13.560;2023-02-28T14:16:21;11.60;83.30
63317;DHT22;49822;41.468;13.560;2023-02-28T14:18:59;11.50;83.50
63317;DHT22;49822;41.468;13.560;2023-02-28T14:21:33;11.50;83.80
63317;DHT22;49822;41.468;13.560;2023-02-28T14:27:43;11.30;84.10
63317;DHT22;49822;41.468;13.560;2023-02-28T14:37:02;11.30;83.60
63317;DHT22;49822;41.468;13.560;2023-02-28T14:39:53;11.20;83.80
63317;DHT22;49822;41.468;13.560;2023-02-28T14:42:35;11.20;84.20
63317;DHT22;49822;41.468;13.560;2023-02-28T14:45:05;11.10;84.10
63317;DHT22;49822;41.468;13.560;2023-02-28T14:47:35;11.10;84.20
63317;DHT22;49822;41.468;13.560;2023-02-28T14:50:04;11.20;84.40
63317;DHT22;49822;41.468;13.560;2023-02-28T14:52:33;11.10;84.30
63317;DHT22;49822;41.468;13.560;2023-02-28T14:55:14;11.20;84.30
63317;DHT22;49822;41.468;13.560;2023-02-28T14:58:00;11.20;84.50
63317;DHT22;49822;41.468;13.560;2023-02-28T15:00:35;11.10;85.00
63317;DHT22;49822;41.468;13.560;2023-02-28T15:03:24;11.10;85.40
63317;DHT22;49822;41.468;13.560;2023-02-28T15:06:05;11.00;84.90
63317;DHT22;49822;41.468;13.560;2023-02-28T15:08:33;11.10;85.20
63317;DHT22;49822;41.468;13.560;2023-02-28T15:13:48;10.90;85.30
63317;DHT22;49822;41.468;13.560;2023-02-28T15:16:24;11.00;85.30
63317;DHT22;49822;41.468;13.560;2023-02-28T15:19:13;10.90;85.70
63317;DHT22;49822;41.468;13.560;2023-02-28T15:21:44;11.00;85.90
63317;DHT22;49822;41.468;13.560;2023-02-28T15:24:15;11.00;85.60
63317;DHT22;49822;41.468;13.560;2023-02-28T15:26:59;10.90;85.60
63317;DHT22;49822;41.468;13.560;2023-02-28T15:29:29;10.90;85.80
63317;DHT22;49822;41.468;13.560;2023-02-28T15:32:04;11.00;86.00
63317;DHT22;49822;41.468;13.560;2023-02-28T15:34:41;10.90;86.10
63317;DHT22;49822;41.468;13.560;2023-02-28T15:40:28;10.90;86.70
63317;DHT22;49822;41.468;13.560;2023-02-28T15:46:06;10.80;86.90
63317;DHT22;49822;41.468;13.560;2023-02-28T15:48:47;10.80;87.10
63317;DHT22;49822;41.468;13.560;2023-02-28T15:51:22;10.80;86.80
63317;DHT22;49822;41.468;13.560;2023-02-28T15:53:57;10.80;86.80
63317;DHT22;49822;41.468;13.560;2023-02-28T15:56:33;10.80;86.70
63317;DHT22;49822;41.468;13.560;2023-02-28T15:59:20;10.80;86.70
63317;DHT22;49822;41.468;13.560;2023-02-28T16:02:19;10.80;86.60
63317;DHT22;49822;41.468;13.560;2023-02-28T16:08:27;10.60;86.80
63317;DHT22;49822;41.468;13.560;2023-02-28T16:10:54;10.50;86.80
63317;DHT22;49822;41.468;13.560;2023-02-28T16:13:22;10.50;86.60
63317;DHT22;49822;41.468;13.560;2023-02-28T16:15:52;10.40;86.60
63317;DHT22;49822;41.468;13.560;2023-02-28T16:18:21;10.50;86.70
63317;DHT22;49822;41.468;13.560;2023-02-28T16:20:49;10.50;86.60
63317;DHT22;49822;41.468;13.560;2023-02-28T16:23:16;10.50;86.60
63317;DHT22;49822;41.468;13.560;2023-02-28T16:25:44;10.50;86.30
63317;DHT22;49822;41.468;13.560;2023-02-28T16:28:37;10.50;86.00
63317;DHT22;49822;41.468;13.560;2023-02-28T16:31:52;10.50;86.00
63317;DHT22;49822;41.468;13.560;2023-02-28T16:34:51;10.60;86.60
63317;DHT22;49822;41.468;13.560;2023-02-28T16:38:04;10.50;85.90
63317;DHT22;49822;41.468;13.560;2023-02-28T16:40:34;10.50;85.80
63317;DHT22;49822;41.468;13.560;2023-02-28T16:43:09;10.50;86.30
63317;DHT22;49822;41.468;13.560;2023-02-28T16:45:41;10.40;86.30
63317;DHT22;49822;41.468;13.560;2023-02-28T16:48:16;10.30;86.50
63317;DHT22;49822;41.468;13.560;2023-02-28T16:50:43;10.40;86.30
63317;DHT22;49822;41.468;13.560;2023-02-28T16:53:13;10.20;86.10
63317;DHT22;49822;41.468;13.560;2023-02-28T16:55:44;10.10;86.30
63317;DHT22;49822;41.468;13.560;2023-02-28T16:58:29;10.00;86.80
63317;DHT22;49822;41.468;13.560;2023-02-28T17:01:18;9.90;86.40
63317;DHT22;49822;41.468;13.560;2023-02-28T17:04:19;9.90;86.60
63317;DHT22;49822;41.468;13.560;2023-02-28T17:07:14;9.90;86.00
63317;DHT22;49822;41.468;13.560;2023-02-28T17:09:55;9.90;86.40
63317;DHT22;49822;41.468;13.560;2023-02-28T17:12:23;9.80;86.10
63317;DHT22;49822;41.468;13.560;2023-02-28T17:14:52;9.90;85.90
63317;DHT22;49822;41.468;13.560;2023-02-28T17:17:21;9.90;85.50
63317;DHT22;49822;41.468;13.560;2023-02-28T17:19:49;9.90;86.20
63317;DHT22;49822;41.468;13.560;2023-02-28T17:22:17;9.70;86.80
63317;DHT22;49822;41.468;13.560;2023-02-28T17:24:44;9.70;86.90
63317;DHT22;49822;41.468;13.560;2023-02-28T17:27:12;9.60;86.80
63317;DHT22;49822;41.468;13.560;2023-02-28T17:29:40;9.50;86.50
63317;DHT22;49822;41.468;13.560;2023-02-28T17:32:09;9.50;86.30
63317;DHT22;49822;41.468;13.560;2023-02-28T17:34:44;9.30;87.00
63317;DHT22;49822;41.468;13.560;2023-02-28T17:37:13;9.20;87.30
63317;DHT22;49822;41.468;13.560;2023-02-28T17:39:40;9.20;87.00
63317;DHT22;49822;41.468;13.560;2023-02-28T17:42:08;9.20;86.80
63317;DHT22;49822;41.468;13.560;2023-02-28T17:44:35;9.20;86.40
63317;DHT22;49822;41.468;13.560;2023-02-28T17:47:04;9.10;87.00
63317;DHT22;49822;41.468;13.560;2023-02-28T17:49:31;8.80;87.40
63317;DHT22;49822;41.468;13.560;2023-02-28T17:52:00;8.90;88.40
63317;DHT22;49822;41.468;13.560;2023-02-28T17:54:27;8.80;88.10
63317;DHT22;49822;41.468;13.560;2023-02-28T17:56:55;8.70;87.90
63317;DHT22;49822;41.468;13.560;2023-02-28T17:59:23;8.60;88.10
63317;DHT22;49822;41.468;13.560;2023-02-28T18:01:50;8.60;88.10
63317;DHT22;49822;41.468;13.560;2023-02-28T18:04:17;8.70;87.50
63317;DHT22;49822;41.468;13.560;2023-02-28T18:06:45;9.00;87.40
63317;DHT22;49822;41.468;13.560;2023-02-28T18:09:18;9.00;85.60
63317;DHT22;49822;41.468;13.560;2023-02-28T18:11:48;9.00;86.00
63317;DHT22;49822;41.468;13.560;2023-02-28T18:14:19;9.10;86.50
63317;DHT22;49822;41.468;13.560;2023-02-28T18:16:46;9.10;86.30
63317;DHT22;49822;41.468;13.560;2023-02-28T18:19:15;9.20;86.40
63317;DHT22;49822;41.468;13.560;2023-02-28T18:21:46;9.20;85.70
63317;DHT22;49822;41.468;13.560;2023-02-28T18:24:13;9.20;85.00
63317;DHT22;49822;41.468;13.560;2023-02-28T18:26:42;9.40;85.80
63317;DHT22;49822;41.468;13.560;2023-02-28T18:29:16;9.50;86.60
63317;DHT22;49822;41.468;13.560;2023-02-28T18:31:44;9.50;86.70
63317;DHT22;49822;41.468;13.560;2023-02-28T18:34:12;9.60;86.20
63317;DHT22;49822;41.468;13.560;2023-02-28T18:36:41;9.70;85.40
63317;DHT22;49822;41.468;13.560;2023-02-28T18:39:13;9.60;85.80
63317;DHT22;49822;41.468;13.560;2023-02-28T18:41:41;9.60;86.10